sensor_id;sensor_type;location;lat;lon;timestamp;temperature;humidity
67273;DHT22;54190;49.770;9.250;2023-07-13T00:01:48;18.80;96.80
67273;DHT22;54190;49.770;9.250;2023-07-13T00:04:20;18.80;96.70
67273;DHT22;54190;49.770;9.250;2023-07-13T00:06:46;18.70;96.90
67273;DHT22;54190;49.770;9.250;2023-07-13T00:09:16;18.60;97.00
67273;DHT22;54190;49.770;9.250;2023-07-13T00:11:43;18.60;97.20
67273;DHT22;54190;49.770;9.250;2023-07-13T00:14:10;18.50;97.00
67273;DHT22;54190;49.770;9.250;2023-07-13T00:16:37;18.30;96.40
67273;DHT22;54190;49.770;9.250;2023-07-13T00:19:04;18.20;97.00
67273;DHT22;54190;49.770;9.250;2023-07-13T00:21:30;18.10;97.10
67273;DHT22;54190;49.770;9.250;2023-07-13T00:23:55;18.20;97.30
67273;DHT22;54190;49.770;9.250;2023-07-13T00:26:21;18.20;97.20
67273;DHT22;54190;49.770;9.250;2023-07-13T00:28:47;18.30;97.20
67273;DHT22;54190;49.770;9.250;2023-07-13T00:31:13;18.20;97.20
67273;DHT22;54190;49.770;9.250;2023-07-13T00:33:42;18.20;97.30
67273;DHT22;54190;49.770;9.250;2023-07-13T00:36:09;18.10;97.60
67273;DHT22;54190;49.770;9.250;2023-07-13T00:38:35;18.10;97.60
67273;DHT22;54190;49.770;9.250;2023-07-13T00:41:01;18.10;97.70
67273;DHT22;54190;49.770;9.250;2023-07-13T00:43:29;18.00;97.40
67273;DHT22;54190;49.770;9.250;2023-07-13T00:48:29;18.00;98.10
67273;DHT22;54190;49.770;9.250;2023-07-13T00:50:58;17.90;98.40
67273;DHT22;54190;49.770;9.250;2023-07-13T00:53:26;17.80;98.50
67273;DHT22;54190;49.770;9.250;2023-07-13T00:55:53;17.80;98.30
67273;DHT22;54190;49.770;9.250;2023-07-13T00:58:21;17.80;98.40
67273;DHT22;54190;49.770;9.250;2023-07-13T01:00:47;17.80;98.30
67273;DHT22;54190;49.770;9.250;2023-07-13T01:03:15;17.70;98.20
67273;DHT22;54190;49.770;9.250;2023-07-13T01:05:40;17.60;98.40
67273;DHT22;54190;49.770;9.250;2023-07-13T01:08:06;17.50;98.70
67273;DHT22;54190;49.770;9.250;2023-07-13T01:10:33;17.50;99.10
67273;DHT22;54190;49.770;9.250;2023-07-13T01:13:08;17.40;99.30
67273;DHT22;54190;49.770;9.250;2023-07-13T01:15:45;17.30;99.50
67273;DHT22;54190;49.770;9.250;2023-07-13T01:18:22;17.20;99.60
67273;DHT22;54190;49.770;9.250;2023-07-13T01:23:19;17.10;99.90
67273;DHT22;54190;49.770;9.250;2023-07-13T01:25:45;17.00;99.30
67273;DHT22;54190;49.770;9.250;2023-07-13T01:28:11;17.00;99.80
67273;DHT22;54190;49.770;9.250;2023-07-13T01:30:38;17.00;99.80
67273;DHT22;54190;49.770;9.250;2023-07-13T01:33:08;16.90;99.50
67273;DHT22;54190;49.770;9.250;2023-07-13T01:35:35;16.90;99.90
67273;DHT22;54190;49.770;9.250;2023-07-13T01:38:01;16.90;99.90
67273;DHT22;54190;49.770;9.250;2023-07-13T01:40:28;16.90;99.90
67273;DHT22;54190;49.770;9.250;2023-07-13T01:42:54;16.90;99.90
67273;DHT22;54190;49.770;9.250;2023-07-13T01:45:20;16.80;99.90
67273;DHT22;54190;49.770;9.250;2023-07-13T01:47:47;16.80;99.90
67273;DHT22;54190;49.770;9.250;2023-07-13T01:50:12;16.80;99.90
67273;DHT22;54190;49.770;9.250;2023-07-13T01:52:38;16.80;99.90
67273;DHT22;54190;49.770;9.250;2023-07-13T01:55:04;16.80;99.90
67273;DHT22;54190;49.770;9.250;2023-07-13T01:57:30;16.80;99.90
67273;DHT22;54190;49.770;9.250;2023-07-13T01:59:55;16.80;99.90
67273;DHT22;54190;49.770;9.250;2023-07-13T02:02:21;16.80;99.90
67273;DHT22;54190;49.770;9.250;2023-07-13T02:04:47;16.70;99.90
67273;DHT22;54190;49.770;9.250;2023-07-13T02:07:13;16.60;99.90
67273;DHT22;54190;49.770;9.250;2023-07-13T02:09:40;16.60;99.90
67273;DHT22;54190;49.770;9.250;2023-07-13T02:12:07;16.50;99.90
67273;DHT22;54190;49.770;9.250;2023-07-13T02:14:33;16.50;99.90
67273;DHT22;54190;49.770;9.250;2023-07-13T02:16:59;16.50;99.90
67273;DHT22;54190;49.770;9.250;2023-07-13T02:19:25;16.40;99.90
67273;DHT22;54190;49.770;9.250;2023-07-13T02:21:50;16.40;99.90
67273;DHT22;54190;49.770;9.250;2023-07-13T02:24:16;16.40;99.90
67273;DHT22;54190;49.770;9.250;2023-07-13T02:26:45;16.40;99.90
67273;DHT22;54190;49.770;9.250;2023-07-13T02:29:11;16.40;99.90
67273;DHT22;54190;49.770;9.250;2023-07-13T02:31:37;16.40;99.90
67273;DHT22;54190;49.770;9.250;2023-07-13T02:34:03;16.30;99.90
67273;DHT22;54190;49.770;9.250;2023-07-13T02:36:30;16.20;99.90
67273;DHT22;54190;49.770;9.250;2023-07-13T02:38:55;16.20;99.90
67273;DHT22;54190;49.770;9.250;2023-07-13T02:41:21;16.20;99.90
67273;DHT22;54190;49.770;9.250;2023-07-13T02:43:48;16.20;99.90
67273;DHT22;54190;49.770;9.250;2023-07-13T02:46:14;16.10;99.90
67273;DHT22;54190;49.770;9.250;2023-07-13T02:48:40;16.00;99.90
67273;DHT22;54190;49.770;9.250;2023-07-13T02:51:06;15.90;99.90
67273;DHT22;54190;49.770;9.250;2023-07-13T02:53:33;15.90;99.90
67273;DHT22;54190;49.770;9.250;2023-07-13T02:55:59;15.90;99.90
67273;DHT22;54190;49.770;9.250;2023-07-13T02:58:25;15.80;99.90
67273;DHT22;54190;49.770;9.250;2023-07-13T03:00:51;15.80;99.90
67273;DHT22;54190;49.770;9.250;2023-07-13T03:03:17;15.70;99.90
67273;DHT22;54190;49.770;9.250;2023-07-13T03:05:44;15.80;99.90
67273;DHT22;54190;49.770;9.250;2023-07-13T03:08:11;15.70;99.90
67273;DHT22;54190;49.770;9.250;2023-07-13T03:10:38;15.70;99.90
67273;DHT22;54190;49.770;9.250;2023-07-13T03:13:07;15.70;99.90
67273;DHT22;54190;49.770;9.250;2023-07-13T03:15:33;15.60;99.90
67273;DHT22;54190;49.770;9.250;2023-07-13T03:17:59;15.50;99.90
67273;DHT22;54190;49.770;9.250;2023-07-13T03:20:25;15.60;99.90
67273;DHT22;54190;49.770;9.250;2023-07-13T03:22:50;15.40;99.90
67273;DHT22;54190;49.770;9.250;2023-07-13T03:25:17;15.20;99.90
67273;DHT22;54190;49.770;9.250;2023-07-13T03:27:43;15.20;99.90
67273;DHT22;54190;49.770;9.250;2023-07-13T03:30:09;15.10;99.90
67273;DHT22;54190;49.770;9.250;2023-07-13T03:32:35;15.20;99.90
67273;DHT22;54190;49.770;9.250;2023-07-13T03:35:01;15.10;99.90
67273;DHT22;54190;49.770;9.250;2023-07-13T03:37:29;15.00;99.90
67273;DHT22;54190;49.770;9.250;2023-07-13T03:39:54;14.90;99.90
67273;DHT22;54190;49.770;9.250;2023-07-13T03:42:20;15.00;99.90
67273;DHT22;54190;49.770;9.250;2023-07-13T03:44:46;15.00;99.90
67273;DHT22;54190;49.770;9.250;2023-07-13T03:47:17;15.10;99.90
67273;DHT22;54190;49.770;9.250;2023-07-13T03:49:44;15.10;99.90
67273;DHT22;54190;49.770;9.250;2023-07-13T03:52:11;15.20;99.90
67273;DHT22;54190;49.770;9.250;2023-07-13T03:54:37;15.20;99.90
67273;DHT22;54190;49.770;9.250;2023-07-13T03:57:02;15.30;99.90
67273;DHT22;54190;49.770;9.250;2023-07-13T03:59:31;15.30;99.90
67273;DHT22;54190;49.770;9.250;2023-07-13T04:01:56;15.30;99.90
67273;DHT22;54190;49.770;9.250;2023-07-13T04:04:22;15.30;99.90
67273;DHT22;54190;49.770;9.250;2023-07-13T04:06:48;15.30;99.90
67273;DHT22;54190;49.770;9.250;2023-07-13T04:09:13;15.30;99.90
67273;DHT22;54190;49.770;9.250;2023-07-13T04:11:39;15.30;99.90
67273;DHT22;54190;49.770;9.250;2023-07-13T04:14:05;15.40;99.90
67273;DHT22;54190;49.770;9.250;2023-07-13T04:16:33;15.40;99.90
67273;DHT22;54190;49.770;9.250;2023-07-13T04:18:58;15.40;99.90
67273;DHT22;54190;49.770;9.250;2023-07-13T04:21:29;15.20;99.90
67273;DHT22;54190;49.770;9.250;2023-07-13T04:23:56;15.00;99.90
67273;DHT22;54190;49.770;9.250;2023-07-13T04:26:22;14.90;99.90
67273;DHT22;54190;49.770;9.250;2023-07-13T04:28:48;14.90;99.90
67273;DHT22;54190;49.770;9.250;2023-07-13T04:31:14;15.00;99.90
67273;DHT22;54190;49.770;9.250;2023-07-13T04:33:40;15.10;99.90
67273;DHT22;54190;49.770;9.250;2023-07-13T04:36:06;15.20;99.90
67273;DHT22;54190;49.770;9.250;2023-07-13T04:38:32;15.30;99.90
67273;DHT22;54190;49.770;9.250;2023-07-13T04:41:01;15.30;99.90
67273;DHT22;54190;49.770;9.250;2023-07-13T04:43:27;15.30;99.90
67273;DHT22;54190;49.770;9.250;2023-07-13T04:45:53;15.30;99.90
67273;DHT22;54190;49.770;9.250;2023-07-13T04:48:20;15.30;99.90
67273;DHT22;54190;49.770;9.250;2023-07-13T04:50:46;15.30;99.90
67273;DHT22;54190;49.770;9.250;2023-07-13T04:53:12;15.30;99.90
67273;DHT22;54190;49.770;9.250;2023-07-13T04:55:38;15.40;99.90
67273;DHT22;54190;49.770;9.250;2023-07-13T04:58:04;15.50;99.90
67273;DHT22;54190;49.770;9.250;2023-07-13T05:00:30;15.50;99.90
67273;DHT22;54190;49.770;9.250;2023-07-13T05:02:56;15.60;99.90
67273;DHT22;54190;49.770;9.250;2023-07-13T05:05:26;15.60;99.90
67273;DHT22;54190;49.770;9.250;2023-07-13T05:07:52;15.70;99.90
67273;DHT22;54190;49.770;9.250;2023-07-13T05:10:18;15.70;99.90
67273;DHT22;54190;49.770;9.250;2023-07-13T05:12:44;15.80;99.90
67273;DHT22;54190;49.770;9.250;2023-07-13T05:15:10;15.90;99.90
67273;DHT22;54190;49.770;9.250;2023-07-13T05:17:36;16.00;99.90
67273;DHT22;54190;49.770;9.250;2023-07-13T05:20:05;16.30;99.90
67273;DHT22;54190;49.770;9.250;2023-07-13T05:22:31;16.50;99.90
67273;DHT22;54190;49.770;9.250;2023-07-13T05:24:57;16.60;99.90
67273;DHT22;54190;49.770;9.250;2023-07-13T05:27:22;16.60;99.90
67273;DHT22;54190;49.770;9.250;2023-07-13T05:29:49;16.60;99.90
67273;DHT22;54190;49.770;9.250;2023-07-13T05:32:15;16.60;99.90
67273;DHT22;54190;49.770;9.250;2023-07-13T05:34:40;16.70;99.90
67273;DHT22;54190;49.770;9.250;2023-07-13T05:37:07;16.70;99.90
67273;DHT22;54190;49.770;9.250;2023-07-13T05:39:33;16.70;99.90
67273;DHT22;54190;49.770;9.250;2023-07-13T05:41:58;16.70;99.90
67273;DHT22;54190;49.770;9.250;2023-07-13T05:44:24;16.80;99.90
67273;DHT22;54190;49.770;9.250;2023-07-13T05:46:49;16.80;99.90
67273;DHT22;54190;49.770;9.250;2023-07-13T05:49:15;16.80;99.90
67273;DHT22;54190;49.770;9.250;2023-07-13T05:51:41;16.80;99.90
67273;DHT22;54190;49.770;9.250;2023-07-13T05:54:06;16.90;99.90
67273;DHT22;54190;49.770;9.250;2023-07-13T05:56:32;17.00;99.90
67273;DHT22;54190;49.770;9.250;2023-07-13T05:58:58;17.00;99.90
67273;DHT22;54190;49.770;9.250;2023-07-13T06:01:23;17.10;99.90
67273;DHT22;54190;49.770;9.250;2023-07-13T06:03:49;17.10;99.90
67273;DHT22;54190;49.770;9.250;2023-07-13T06:06:16;17.10;99.90
67273;DHT22;54190;49.770;9.250;2023-07-13T06:08:41;17.20;99.90
67273;DHT22;54190;49.770;9.250;2023-07-13T06:11:12;17.20;99.90
67273;DHT22;54190;49.770;9.250;2023-07-13T06:13:39;17.20;99.90
67273;DHT22;54190;49.770;9.250;2023-07-13T06:16:05;17.30;99.90
67273;DHT22;54190;49.770;9.250;2023-07-13T06:18:32;17.50;99.60
67273;DHT22;54190;49.770;9.250;2023-07-13T06:20:58;17.90;98.70
67273;DHT22;54190;49.770;9.250;2023-07-13T06:23:24;18.00;98.50
67273;DHT22;54190;49.770;9.250;2023-07-13T06:25:50;18.00;98.20
67273;DHT22;54190;49.770;9.250;2023-07-13T06:28:15;18.00;98.90
67273;DHT22;54190;49.770;9.250;2023-07-13T06:30:41;18.10;98.00
67273;DHT22;54190;49.770;9.250;2023-07-13T06:33:07;18.20;97.70
67273;DHT22;54190;49.770;9.250;2023-07-13T06:35:32;18.20;96.60
67273;DHT22;54190;49.770;9.250;2023-07-13T06:37:59;18.30;97.00
67273;DHT22;54190;49.770;9.250;2023-07-13T06:40:24;18.30;96.40
67273;DHT22;54190;49.770;9.250;2023-07-13T06:42:50;18.40;95.70
67273;DHT22;54190;49.770;9.250;2023-07-13T06:45:16;18.40;95.70
67273;DHT22;54190;49.770;9.250;2023-07-13T06:47:42;18.60;95.70
67273;DHT22;54190;49.770;9.250;2023-07-13T06:50:07;18.70;95.20
67273;DHT22;54190;49.770;9.250;2023-07-13T06:52:33;18.80;94.70
67273;DHT22;54190;49.770;9.250;2023-07-13T06:54:59;18.70;94.80
67273;DHT22;54190;49.770;9.250;2023-07-13T06:57:24;18.80;95.00
67273;DHT22;54190;49.770;9.250;2023-07-13T06:59:50;18.80;94.50
67273;DHT22;54190;49.770;9.250;2023-07-13T07:02:16;19.00;94.80
67273;DHT22;54190;49.770;9.250;2023-07-13T07:04:41;19.00;94.70
67273;DHT22;54190;49.770;9.250;2023-07-13T07:07:07;19.10;94.10
67273;DHT22;54190;49.770;9.250;2023-07-13T07:09:33;19.30;94.90
67273;DHT22;54190;49.770;9.250;2023-07-13T07:11:58;19.30;94.10
67273;DHT22;54190;49.770;9.250;2023-07-13T07:14:24;19.30;94.30
67273;DHT22;54190;49.770;9.250;2023-07-13T07:16:50;19.40;94.50
67273;DHT22;54190;49.770;9.250;2023-07-13T07:19:16;19.40;94.20
67273;DHT22;54190;49.770;9.250;2023-07-13T07:21:41;19.50;93.50
67273;DHT22;54190;49.770;9.250;2023-07-13T07:24:07;19.70;92.80
67273;DHT22;54190;49.770;9.250;2023-07-13T07:26:33;20.00;92.70
67273;DHT22;54190;49.770;9.250;2023-07-13T07:28:59;20.10;92.30
67273;DHT22;54190;49.770;9.250;2023-07-13T07:31:25;20.20;91.70
67273;DHT22;54190;49.770;9.250;2023-07-13T07:33:50;20.40;91.70
67273;DHT22;54190;49.770;9.250;2023-07-13T07:36:16;20.50;91.60
67273;DHT22;54190;49.770;9.250;2023-07-13T07:38:43;20.60;91.30
67273;DHT22;54190;49.770;9.250;2023-07-13T07:41:09;20.70;91.40
67273;DHT22;54190;49.770;9.250;2023-07-13T07:43:35;20.90;91.00
67273;DHT22;54190;49.770;9.250;2023-07-13T07:46:01;20.90;90.10
67273;DHT22;54190;49.770;9.250;2023-07-13T07:48:26;21.00;90.50
67273;DHT22;54190;49.770;9.250;2023-07-13T07:50:52;21.10;91.20
67273;DHT22;54190;49.770;9.250;2023-07-13T07:53:17;21.10;90.30
67273;DHT22;54190;49.770;9.250;2023-07-13T07:55:43;21.20;90.10
67273;DHT22;54190;49.770;9.250;2023-07-13T07:58:09;21.30;89.30
67273;DHT22;54190;49.770;9.250;2023-07-13T08:00:34;21.40;90.10
67273;DHT22;54190;49.770;9.250;2023-07-13T08:03:00;21.50;90.40
67273;DHT22;54190;49.770;9.250;2023-07-13T08:05:26;21.60;88.30
67273;DHT22;54190;49.770;9.250;2023-07-13T08:07:52;21.70;87.70
67273;DHT22;54190;49.770;9.250;2023-07-13T08:10:18;21.70;87.60
67273;DHT22;54190;49.770;9.250;2023-07-13T08:12:44;21.80;87.60
67273;DHT22;54190;49.770;9.250;2023-07-13T08:15:17;21.90;87.30
67273;DHT22;54190;49.770;9.250;2023-07-13T08:17:43;22.10;87.40
67273;DHT22;54190;49.770;9.250;2023-07-13T08:20:09;22.20;83.10
67273;DHT22;54190;49.770;9.250;2023-07-13T08:22:35;22.30;84.60
67273;DHT22;54190;49.770;9.250;2023-07-13T08:25:01;22.50;83.10
67273;DHT22;54190;49.770;9.250;2023-07-13T08:27:28;22.50;84.00
67273;DHT22;54190;49.770;9.250;2023-07-13T08:29:54;22.60;84.00
67273;DHT22;54190;49.770;9.250;2023-07-13T08:32:21;22.60;82.30
67273;DHT22;54190;49.770;9.250;2023-07-13T08:34:48;22.80;82.50
67273;DHT22;54190;49.770;9.250;2023-07-13T08:37:14;22.90;80.90
67273;DHT22;54190;49.770;9.250;2023-07-13T08:39:40;22.90;78.10
67273;DHT22;54190;49.770;9.250;2023-07-13T08:42:14;22.70;80.90
67273;DHT22;54190;49.770;9.250;2023-07-13T08:47:32;22.60;82.80
67273;DHT22;54190;49.770;9.250;2023-07-13T08:50:01;22.60;83.10
67273;DHT22;54190;49.770;9.250;2023-07-13T08:52:36;22.70;82.40
67273;DHT22;54190;49.770;9.250;2023-07-13T08:55:29;22.70;81.90
67273;DHT22;54190;49.770;9.250;2023-07-13T08:58:05;22.80;81.80
67273;DHT22;54190;49.770;9.250;2023-07-13T09:00:44;22.80;80.40
67273;DHT22;54190;49.770;9.250;2023-07-13T09:03:22;22.90;82.20
67273;DHT22;54190;49.770;9.250;2023-07-13T09:05:57;23.10;81.80
67273;DHT22;54190;49.770;9.250;2023-07-13T09:11:28;23.20;78.30
67273;DHT22;54190;49.770;9.250;2023-07-13T09:14:48;23.10;76.40
67273;DHT22;54190;49.770;9.250;2023-07-13T09:17:25;23.00;76.30
67273;DHT22;54190;49.770;9.250;2023-07-13T09:20:03;23.00;77.10
67273;DHT22;54190;49.770;9.250;2023-07-13T09:22:34;23.10;76.60
67273;DHT22;54190;49.770;9.250;2023-07-13T09:25:34;23.10;76.50
67273;DHT22;54190;49.770;9.250;2023-07-13T09:28:02;23.00;78.30
67273;DHT22;54190;49.770;9.250;2023-07-13T09:30:56;23.00;77.00
67273;DHT22;54190;49.770;9.250;2023-07-13T09:33:22;23.00;76.90
67273;DHT22;54190;49.770;9.250;2023-07-13T09:35:48;23.00;77.50
67273;DHT22;54190;49.770;9.250;2023-07-13T09:38:17;23.10;78.80
67273;DHT22;54190;49.770;9.250;2023-07-13T09:40:57;23.30;77.50
67273;DHT22;54190;49.770;9.250;2023-07-13T09:43:24;23.40;79.10
67273;DHT22;54190;49.770;9.250;2023-07-13T09:45:50;23.60;79.90
67273;DHT22;54190;49.770;9.250;2023-07-13T09:48:17;23.80;75.20
67273;DHT22;54190;49.770;9.250;2023-07-13T09:50:44;23.80;72.00
67273;DHT22;54190;49.770;9.250;2023-07-13T09:53:17;23.90;76.20
67273;DHT22;54190;49.770;9.250;2023-07-13T09:55:45;23.90;74.80
67273;DHT22;54190;49.770;9.250;2023-07-13T09:58:24;24.00;78.70
67273;DHT22;54190;49.770;9.250;2023-07-13T10:00:58;24.20;74.60
67273;DHT22;54190;49.770;9.250;2023-07-13T10:03:27;24.30;74.10
67273;DHT22;54190;49.770;9.250;2023-07-13T10:05:53;24.40;72.50
67273;DHT22;54190;49.770;9.250;2023-07-13T10:08:27;24.40;71.60
67273;DHT22;54190;49.770;9.250;2023-07-13T10:10:58;24.40;74.80
67273;DHT22;54190;49.770;9.250;2023-07-13T10:13:46;24.40;71.70
67273;DHT22;54190;49.770;9.250;2023-07-13T10:16:14;24.40;70.70
67273;DHT22;54190;49.770;9.250;2023-07-13T10:18:50;24.40;70.20
67273;DHT22;54190;49.770;9.250;2023-07-13T10:21:22;24.30;70.10
67273;DHT22;54190;49.770;9.250;2023-07-13T10:23:51;24.30;71.30
67273;DHT22;54190;49.770;9.250;2023-07-13T10:26:26;24.30;71.20
67273;DHT22;54190;49.770;9.250;2023-07-13T10:28:54;24.20;73.20
67273;DHT22;54190;49.770;9.250;2023-07-13T10:31:21;24.30;71.40
67273;DHT22;54190;49.770;9.250;2023-07-13T10:33:48;24.40;69.00
67273;DHT22;54190;49.770;9.250;2023-07-13T10:36:28;24.50;71.70
67273;DHT22;54190;49.770;9.250;2023-07-13T10:38:57;24.50;71.60
67273;DHT22;54190;49.770;9.250;2023-07-13T10:41:25;24.50;68.90
67273;DHT22;54190;49.770;9.250;2023-07-13T10:43:53;24.50;71.00
67273;DHT22;54190;49.770;9.250;2023-07-13T10:46:22;24.60;70.70
67273;DHT22;54190;49.770;9.250;2023-07-13T10:48:52;24.60;68.40
67273;DHT22;54190;49.770;9.250;2023-07-13T10:51:20;24.60;67.40
67273;DHT22;54190;49.770;9.250;2023-07-13T10:53:47;24.50;69.40
67273;DHT22;54190;49.770;9.250;2023-07-13T10:56:29;24.60;70.30
67273;DHT22;54190;49.770;9.250;2023-07-13T11:04:29;24.30;67.30
67273;DHT22;54190;49.770;9.250;2023-07-13T11:07:18;24.20;68.10
67273;DHT22;54190;49.770;9.250;2023-07-13T11:09:50;24.00;66.90
67273;DHT22;54190;49.770;9.250;2023-07-13T11:17:47;24.00;69.80
67273;DHT22;54190;49.770;9.250;2023-07-13T11:22:50;24.00;72.90
67273;DHT22;54190;49.770;9.250;2023-07-13T11:25:32;24.20;71.30
67273;DHT22;54190;49.770;9.250;2023-07-13T11:30:42;24.50;68.00
67273;DHT22;54190;49.770;9.250;2023-07-13T11:33:19;24.50;69.50
67273;DHT22;54190;49.770;9.250;2023-07-13T11:36:04;24.60;66.90
67273;DHT22;54190;49.770;9.250;2023-07-13T11:38:37;24.60;66.20
67273;DHT22;54190;49.770;9.250;2023-07-13T11:41:25;24.50;66.50
67273;DHT22;54190;49.770;9.250;2023-07-13T11:44:01;24.70;69.80
67273;DHT22;54190;49.770;9.250;2023-07-13T11:46:30;24.90;64.60
67273;DHT22;54190;49.770;9.250;2023-07-13T11:48:55;24.80;68.20
67273;DHT22;54190;49.770;9.250;2023-07-13T11:51:23;24.80;66.40
67273;DHT22;54190;49.770;9.250;2023-07-13T11:53:55;24.80;66.40
67273;DHT22;54190;49.770;9.250;2023-07-13T11:56:23;24.70;66.60
67273;DHT22;54190;49.770;9.250;2023-07-13T11:58:54;24.70;67.00
67273;DHT22;54190;49.770;9.250;2023-07-13T12:01:23;24.90;64.20
67273;DHT22;54190;49.770;9.250;2023-07-13T12:03:50;25.20;63.70
67273;DHT22;54190;49.770;9.250;2023-07-13T12:06:34;25.20;62.90
67273;DHT22;54190;49.770;9.250;2023-07-13T12:09:08;25.10;63.20
67273;DHT22;54190;49.770;9.250;2023-07-13T12:11:40;25.00;65.30
67273;DHT22;54190;49.770;9.250;2023-07-13T12:14:13;24.90;61.10
67273;DHT22;54190;49.770;9.250;2023-07-13T12:16:40;24.70;63.90
67273;DHT22;54190;49.770;9.250;2023-07-13T12:19:25;24.70;63.20
67273;DHT22;54190;49.770;9.250;2023-07-13T12:21:54;24.80;64.30
67273;DHT22;54190;49.770;9.250;2023-07-13T12:24:22;24.80;64.70
67273;DHT22;54190;49.770;9.250;2023-07-13T12:26:53;24.90;66.20
67273;DHT22;54190;49.770;9.250;2023-07-13T12:29:19;24.90;63.10
67273;DHT22;54190;49.770;9.250;2023-07-13T12:31:47;24.90;60.90
67273;DHT22;54190;49.770;9.250;2023-07-13T12:34:16;24.90;61.00
67273;DHT22;54190;49.770;9.250;2023-07-13T12:39:33;24.80;63.10
67273;DHT22;54190;49.770;9.250;2023-07-13T12:42:27;25.10;60.40
67273;DHT22;54190;49.770;9.250;2023-07-13T12:45:01;25.40;60.20
67273;DHT22;54190;49.770;9.250;2023-07-13T12:47:28;25.80;63.00
67273;DHT22;54190;49.770;9.250;2023-07-13T12:49:55;26.00;60.00
67273;DHT22;54190;49.770;9.250;2023-07-13T12:52:24;26.00;58.30
67273;DHT22;54190;49.770;9.250;2023-07-13T12:54:57;25.90;59.50
67273;DHT22;54190;49.770;9.250;2023-07-13T12:57:23;25.80;58.80
67273;DHT22;54190;49.770;9.250;2023-07-13T12:59:52;25.60;58.90
67273;DHT22;54190;49.770;9.250;2023-07-13T13:02:33;25.50;58.70
67273;DHT22;54190;49.770;9.250;2023-07-13T13:05:01;25.30;58.40
67273;DHT22;54190;49.770;9.250;2023-07-13T13:07:28;25.00;58.40
67273;DHT22;54190;49.770;9.250;2023-07-13T13:09:55;24.90;60.50
67273;DHT22;54190;49.770;9.250;2023-07-13T13:12:22;24.90;62.50
67273;DHT22;54190;49.770;9.250;2023-07-13T13:14:51;25.00;60.30
67273;DHT22;54190;49.770;9.250;2023-07-13T13:17:21;24.90;60.00
67273;DHT22;54190;49.770;9.250;2023-07-13T13:19:49;24.90;61.10
67273;DHT22;54190;49.770;9.250;2023-07-13T13:22:15;24.90;60.10
67273;DHT22;54190;49.770;9.250;2023-07-13T13:24:41;24.90;59.60
67273;DHT22;54190;49.770;9.250;2023-07-13T13:27:20;24.90;60.00
67273;DHT22;54190;49.770;9.250;2023-07-13T13:29:46;24.90;62.10
67273;DHT22;54190;49.770;9.250;2023-07-13T13:32:13;25.00;59.50
67273;DHT22;54190;49.770;9.250;2023-07-13T13:34:40;25.20;60.10
67273;DHT22;54190;49.770;9.250;2023-07-13T13:37:20;25.20;58.80
67273;DHT22;54190;49.770;9.250;2023-07-13T13:39:47;25.10;59.80
67273;DHT22;54190;49.770;9.250;2023-07-13T13:42:13;25.00;58.70
67273;DHT22;54190;49.770;9.250;2023-07-13T13:44:39;24.90;58.20
67273;DHT22;54190;49.770;9.250;2023-07-13T13:47:30;24.90;58.00
67273;DHT22;54190;49.770;9.250;2023-07-13T13:49:57;24.80;58.90
67273;DHT22;54190;49.770;9.250;2023-07-13T13:52:23;24.70;59.30
67273;DHT22;54190;49.770;9.250;2023-07-13T13:54:49;24.60;60.00
67273;DHT22;54190;49.770;9.250;2023-07-13T13:57:15;24.60;61.50
67273;DHT22;54190;49.770;9.250;2023-07-13T13:59:41;24.60;62.00
67273;DHT22;54190;49.770;9.250;2023-07-13T14:02:23;24.70;61.10
67273;DHT22;54190;49.770;9.250;2023-07-13T14:05:00;24.70;61.10
67273;DHT22;54190;49.770;9.250;2023-07-13T14:07:27;24.70;60.80
67273;DHT22;54190;49.770;9.250;2023-07-13T14:09:58;24.70;62.00
67273;DHT22;54190;49.770;9.250;2023-07-13T14:12:26;24.70;58.70
67273;DHT22;54190;49.770;9.250;2023-07-13T14:14:55;24.70;61.90
67273;DHT22;54190;49.770;9.250;2023-07-13T14:17:24;24.70;62.00
67273;DHT22;54190;49.770;9.250;2023-07-13T14:19:52;24.80;62.00
67273;DHT22;54190;49.770;9.250;2023-07-13T14:22:23;24.80;59.70
67273;DHT22;54190;49.770;9.250;2023-07-13T14:24:51;24.80;60.90
67273;DHT22;54190;49.770;9.250;2023-07-13T14:27:17;24.80;60.70
67273;DHT22;54190;49.770;9.250;2023-07-13T14:29:42;24.80;60.50
67273;DHT22;54190;49.770;9.250;2023-07-13T14:32:12;24.80;59.00
67273;DHT22;54190;49.770;9.250;2023-07-13T14:34:38;24.70;59.30
67273;DHT22;54190;49.770;9.250;2023-07-13T14:37:05;24.70;59.00
67273;DHT22;54190;49.770;9.250;2023-07-13T14:39:31;24.60;58.80
67273;DHT22;54190;49.770;9.250;2023-07-13T14:41:57;24.60;58.90
67273;DHT22;54190;49.770;9.250;2023-07-13T14:44:28;24.50;60.50
67273;DHT22;54190;49.770;9.250;2023-07-13T14:46:55;24.50;60.00
67273;DHT22;54190;49.770;9.250;2023-07-13T14:49:33;24.50;58.90
67273;DHT22;54190;49.770;9.250;2023-07-13T14:52:01;24.50;58.90
67273;DHT22;54190;49.770;9.250;2023-07-13T14:54:27;24.50;59.20
67273;DHT22;54190;49.770;9.250;2023-07-13T14:56:53;24.50;59.20
67273;DHT22;54190;49.770;9.250;2023-07-13T14:59:19;24.50;60.00
67273;DHT22;54190;49.770;9.250;2023-07-13T15:01:46;24.60;59.60
67273;DHT22;54190;49.770;9.250;2023-07-13T15:04:12;24.60;60.00
67273;DHT22;54190;49.770;9.250;2023-07-13T15:09:19;24.60;61.60
67273;DHT22;54190;49.770;9.250;2023-07-13T15:11:45;24.60;59.30
67273;DHT22;54190;49.770;9.250;2023-07-13T15:14:11;24.60;59.40
67273;DHT22;54190;49.770;9.250;2023-07-13T15:16:36;24.50;58.20
67273;DHT22;54190;49.770;9.250;2023-07-13T15:19:02;24.50;59.80
67273;DHT22;54190;49.770;9.250;2023-07-13T15:21:28;24.50;60.30
67273;DHT22;54190;49.770;9.250;2023-07-13T15:24:00;24.50;61.80
67273;DHT22;54190;49.770;9.250;2023-07-13T15:26:26;24.50;60.00
67273;DHT22;54190;49.770;9.250;2023-07-13T15:28:51;24.60;60.40
67273;DHT22;54190;49.770;9.250;2023-07-13T15:31:21;24.60;59.20
67273;DHT22;54190;49.770;9.250;2023-07-13T15:33:48;24.70;58.90
67273;DHT22;54190;49.770;9.250;2023-07-13T15:36:18;24.80;59.20
67273;DHT22;54190;49.770;9.250;2023-07-13T15:38:45;24.90;58.70
67273;DHT22;54190;49.770;9.250;2023-07-13T15:41:18;25.10;57.80
67273;DHT22;54190;49.770;9.250;2023-07-13T15:43:44;25.00;57.30
67273;DHT22;54190;49.770;9.250;2023-07-13T15:46:10;24.90;58.10
67273;DHT22;54190;49.770;9.250;2023-07-13T15:48:36;24.90;59.00
67273;DHT22;54190;49.770;9.250;2023-07-13T15:51:04;24.90;58.00
67273;DHT22;54190;49.770;9.250;2023-07-13T15:53:33;24.90;59.10
67273;DHT22;54190;49.770;9.250;2023-07-13T15:56:00;25.00;59.30
67273;DHT22;54190;49.770;9.250;2023-07-13T15:58:27;25.20;58.50
67273;DHT22;54190;49.770;9.250;2023-07-13T16:00:54;25.20;56.70
67273;DHT22;54190;49.770;9.250;2023-07-13T16:03:20;25.20;56.00
67273;DHT22;54190;49.770;9.250;2023-07-13T16:05:47;25.20;56.40
67273;DHT22;54190;49.770;9.250;2023-07-13T16:08:31;25.20;57.70
67273;DHT22;54190;49.770;9.250;2023-07-13T16:10:58;25.30;57.70